Time;durP1;ratioP1;P1;durP2;ratioP2;P2;SDS_P1;SDS_P2;PMS_P1;PMS_P2;Temp;Humidity;BMP_temperature;BMP_pressure;BME280_temperature;BME280_humidity;BME280_pressure;Samples;Min_cycle;Max_cycle;Signal;HPM_P1;HPM_P2
2021/01/04 00:00:31;;;;;;;36.80;20.00;;;1.80;99.90;;;;;;5037910;28;20464;-77
2021/01/04 00:03:24;;;;;;;32.77;20.10;;;1.70;99.90;;;;;;5042482;28;20452;-77
2021/01/04 00:06:20;;;;;;;35.10;21.90;;;1.70;99.90;;;;;;5021298;28;20504;-76
2021/01/04 00:08:55;;;;;;;37.60;21.03;;;1.70;99.90;;;;;;5038177;28;20462;-76
2021/01/04 00:12:01;;;;;;;36.80;21.13;;;1.80;99.90;;;;;;5041889;28;20503;-76
2021/01/04 00:14:53;;;;;;;35.30;21.00;;;1.80;99.90;;;;;;5023184;28;20444;-77
2021/01/04 00:17:28;;;;;;;38.73;22.67;;;1.80;99.90;;;;;;5038886;28;20417;-77
2021/01/04 00:20:07;;;;;;;36.90;22.00;;;1.90;99.90;;;;;;5041404;28;20550;-77
2021/01/04 00:22:44;;;;;;;36.50;23.27;;;1.90;99.90;;;;;;5042621;28;20440;-76
2021/01/04 00:25:28;;;;;;;36.80;20.93;;;1.90;99.90;;;;;;5036377;28;20920;-76
2021/01/04 00:28:05;;;;;;;35.83;22.40;;;1.90;99.90;;;;;;5040165;28;20452;-76
2021/01/04 00:30:38;;;;;;;42.50;24.63;;;2.00;99.90;;;;;;5022512;28;20421;-76
2021/01/04 00:33:23;;;;;;;40.87;22.70;;;1.90;99.90;;;;;;5042867;28;20427;-76
2021/01/04 00:35:58;;;;;;;47.60;26.03;;;1.90;99.90;;;;;;5037379;28;20445;-76
2021/01/04 00:38:57;;;;;;;47.50;25.43;;;1.90;99.90;;;;;;5041403;28;20424;-76
2021/01/04 00:41:29;;;;;;;51.07;24.53;;;1.80;99.90;;;;;;5038902;28;20482;-76
2021/01/04 00:43:57;;;;;;;44.03;26.97;;;1.80;99.90;;;;;;5040785;28;20438;-76
2021/01/04 00:46:32;;;;;;;45.00;24.30;;;1.80;99.90;;;;;;5041132;28;20450;-76
2021/01/04 00:49:26;;;;;;;49.37;25.80;;;1.80;99.90;;;;;;5022690;28;20406;-77
2021/01/04 00:52:05;;;;;;;48.00;25.70;;;1.90;99.90;;;;;;5021387;28;20395;-76
2021/01/04 00:54:39;;;;;;;47.20;26.90;;;1.90;99.90;;;;;;5021931;28;20512;-76
2021/01/04 00:57:17;;;;;;;46.63;25.43;;;1.80;99.90;;;;;;5042576;28;20427;-77
2021/01/04 01:00:11;;;;;;;44.10;25.00;;;1.80;99.90;;;;;;5036290;28;20520;-76
2021/01/04 01:03:19;;;;;;;45.80;25.33;;;1.80;99.90;;;;;;5035177;28;20436;-77
2021/01/04 01:06:04;;;;;;;43.47;24.87;;;1.90;99.90;;;;;;5016399;28;20397;-76
2021/01/04 01:08:33;;;;;;;43.73;23.77;;;1.90;99.90;;;;;;5039845;28;20420;-76
2021/01/04 01:11:01;;;;;;;45.13;24.30;;;1.90;99.90;;;;;;5041496;28;20390;-76
2021/01/04 01:13:49;;;;;;;48.77;24.93;;;1.90;99.90;;;;;;5040356;28;20901;-76
2021/01/04 01:16:35;;;;;;;40.57;23.43;;;1.90;99.90;;;;;;5036827;28;20885;-76
2021/01/04 01:19:27;;;;;;;43.43;22.20;;;1.90;99.90;;;;;;5039811;28;20454;-75
2021/01/04 01:21:52;;;;;;;41.97;23.70;;;1.90;99.90;;;;;;5039054;28;20475;-76
2021/01/04 01:24:18;;;;;;;41.23;24.03;;;2.00;99.90;;;;;;5041476;28;20412;-76
2021/01/04 01:27:17;;;;;;;42.27;23.50;;;2.00;99.90;;;;;;5039259;28;20317;-76
2021/01/04 01:30:05;;;;;;;51.50;27.43;;;2.00;99.90;;;;;;5036167;28;20187;-76
2021/01/04 01:33:16;;;;;;;49.67;25.00;;;1.90;99.90;;;;;;5023087;28;20818;-76
2021/01/04 01:35:51;;;;;;;46.37;26.40;;;1.90;99.90;;;;;;4988065;28;20430;-76
2021/01/04 01:38:45;;;;;;;50.00;25.67;;;1.90;99.90;;;;;;5023778;28;20456;-77
2021/01/04 01:41:49;;;;;;;47.20;25.97;;;1.90;99.90;;;;;;5035747;28;20429;-76
2021/01/04 01:44:32;;;;;;;49.30;25.60;;;1.90;99.90;;;;;;5021091;28;20939;-76
2021/01/04 01:47:09;;;;;;;41.17;24.23;;;1.90;99.90;;;;;;5041079;28;20415;-76
2021/01/04 01:49:55;;;;;;;45.30;26.00;;;1.90;99.90;;;;;;5038941;28;20429;-76
2021/01/04 01:52:36;;;;;;;40.47;23.80;;;1.90;99.90;;;;;;5038098;28;20414;-76
2021/01/04 01:55:33;;;;;;;39.93;22.53;;;1.90;99.90;;;;;;5039237;28;20432;-75
2021/01/04 01:58:04;;;;;;;39.87;22.43;;;1.90;99.90;;;;;;5007738;28;20404;-76
2021/01/04 02:00:47;;;;;;;46.37;23.33;;;2.00;99.90;;;;;;5021687;28;20434;-76
2021/01/04 02:03:25;;;;;;;41.97;23.80;;;2.00;99.90;;;;;;5036172;28;20418;-76
2021/01/04 02:06:24;;;;;;;43.40;22.30;;;2.00;99.90;;;;;;5040512;28;20395;-76
2021/01/04 02:08:57;;;;;;;44.67;24.30;;;2.00;99.90;;;;;;5019971;28;20486;-76
2021/01/04 02:11:41;;;;;;;37.20;22.47;;;1.90;99.90;;;;;;5022643;28;20400;-76
2021/01/04 02:14:16;;;;;;;45.83;22.90;;;1.90;99.90;;;;;;5034636;28;20418;-76
2021/01/04 02:17:08;;;;;;;35.90;22.47;;;1.90;99.90;;;;;;5035278;28;20392;-76
2021/01/04 02:20:01;;;;;;;39.07;22.70;;;1.90;99.90;;;;;;5041698;28;20512;-76
2021/01/04 02:22:49;;;;;;;45.13;24.10;;;1.90;99.90;;;;;;5040129;28;20431;-76
2021/01/04 02:25:15;;;;;;;49.20;26.80;;;1.90;99.90;;;;;;5039817;28;20503;-77
2021/01/04 02:27:49;;;;;;;47.17;26.07;;;1.80;99.90;;;;;;5045490;28;20837;-76
2021/01/04 02:30:15;;;;;;;49.10;26.73;;;1.90;99.90;;;;;;5040006;28;20227;-76
2021/01/04 02:32:43;;;;;;;44.37;24.70;;;1.90;99.90;;;;;;5027135;28;20464;-76
2021/01/04 02:35:09;;;;;;;41.03;24.07;;;1.90;99.90;;;;;;5041892;28;21002;-76
2021/01/04 02:37:35;;;;;;;44.00;26.23;;;2.00;99.90;;;;;;5027017;28;20452;-76
2021/01/04 02:40:07;;;;;;;45.23;25.23;;;2.00;99.90;;;;;;5042481;28;20445;-76
2021/01/04 02:42:39;;;;;;;47.57;26.70;;;1.90;99.90;;;;;;5044864;28;20473;-76
2021/01/04 02:45:12;;;;;;;46.37;25.67;;;1.90;99.90;;;;;;5041935;28;20428;-74
2021/01/04 02:47:55;;;;;;;43.47;25.57;;;2.00;99.90;;;;;;5019917;28;20417;-76
2021/01/04 02:50:44;;;;;;;53.23;26.90;;;2.00;99.90;;;;;;5041141;28;20428;-76
2021/01/04 02:53:35;;;;;;;52.27;28.77;;;2.00;99.90;;;;;;5020182;28;20547;-76
2021/01/04 02:56:46;;;;;;;48.87;27.10;;;2.00;99.90;;;;;;5043665;28;20455;-76
2021/01/04 02:59:42;;;;;;;45.70;25.40;;;2.00;99.90;;;;;;5035066;28;20463;-76
2021/01/04 03:02:29;;;;;;;44.70;25.30;;;1.80;99.90;;;;;;5037698;28;20787;-76
2021/01/04 03:04:55;;;;;;;50.37;26.30;;;1.80;99.90;;;;;;5041794;28;20449;-76
2021/01/04 03:07:25;;;;;;;48.27;25.90;;;1.80;99.90;;;;;;5043609;28;20946;-76
2021/01/04 03:09:53;;;;;;;49.23;26.63;;;1.90;99.90;;;;;;5042512;28;20273;-76
2021/01/04 03:12:34;;;;;;;44.77;26.53;;;1.90;99.90;;;;;;5043665;28;20508;-76
2021/01/04 03:15:07;;;;;;;46.77;26.03;;;1.90;99.90;;;;;;5026046;28;20814;-76
2021/01/04 03:18:02;;;;;;;49.10;26.43;;;1.90;99.90;;;;;;5023792;28;20487;-76
2021/01/04 03:20:28;;;;;;;49.10;24.20;;;1.90;99.90;;;;;;5040571;28;20469;-76
2021/01/04 03:22:54;;;;;;;48.37;27.07;;;1.90;99.90;;;;;;5024854;28;20854;-77
2021/01/04 03:25:36;;;;;;;44.67;27.20;;;1.90;99.90;;;;;;5042007;28;20421;-76
2021/01/04 03:28:05;;;;;;;44.30;25.77;;;1.90;99.90;;;;;;5023954;28;20463;-76
2021/01/04 03:30:30;;;;;;;46.03;26.60;;;1.80;99.90;;;;;;5043213;28;20413;-76
2021/01/04 03:32:57;;;;;;;51.47;26.40;;;1.90;99.90;;;;;;5024420;28;20989;-74
2021/01/04 03:35:23;;;;;;;48.87;26.83;;;1.90;99.90;;;;;;5024127;28;20216;-77
2021/01/04 03:37:49;;;;;;;48.50;25.30;;;1.90;99.90;;;;;;5042909;28;20395;-76
2021/01/04 03:40:15;;;;;;;50.27;26.17;;;1.90;99.90;;;;;;5041054;28;20519;-76
2021/01/04 03:42:40;;;;;;;44.73;27.13;;;1.90;99.90;;;;;;5043864;28;20198;-76
2021/01/04 03:45:07;;;;;;;46.37;26.83;;;1.90;99.90;;;;;;5040796;28;20416;-76
2021/01/04 03:47:32;;;;;;;43.77;25.83;;;1.90;99.90;;;;;;5043084;28;20213;-76
2021/01/04 03:50:07;;;;;;;44.03;24.40;;;1.90;99.90;;;;;;5024053;28;20387;-76
2021/01/04 03:52:32;;;;;;;48.07;27.03;;;1.90;99.90;;;;;;5025118;28;20185;-77
2021/01/04 03:54:58;;;;;;;48.40;26.27;;;1.90;99.90;;;;;;5041686;28;20468;-76
2021/01/04 03:57:23;;;;;;;48.70;26.83;;;1.90;99.90;;;;;;5041681;28;20245;-76
2021/01/04 03:59:49;;;;;;;51.33;28.43;;;1.90;99.90;;;;;;5042606;28;20211;-77
2021/01/04 04:02:14;;;;;;;54.37;28.57;;;1.80;99.90;;;;;;5040515;28;20197;-75
2021/01/04 04:04:41;;;;;;;47.03;29.67;;;1.80;99.90;;;;;;5043556;28;20227;-76
2021/01/04 04:07:07;;;;;;;49.30;28.17;;;1.80;99.90;;;;;;5040064;28;20184;-76
2021/01/04 04:09:32;;;;;;;47.13;25.70;;;1.80;99.90;;;;;;5042766;28;20450;-76
2021/01/04 04:11:58;;;;;;;44.80;23.33;;;1.80;99.90;;;;;;5041172;28;20930;-77
2021/01/04 04:14:24;;;;;;;44.47;24.80;;;1.80;99.90;;;;;;5041357;28;20203;-76
2021/01/04 04:16:49;;;;;;;50.27;27.30;;;1.80;99.90;;;;;;5042221;28;20552;-76
2021/01/04 04:19:15;;;;;;;52.10;28.87;;;1.80;99.90;;;;;;5040395;28;20195;-76
2021/01/04 04:21:41;;;;;;;52.97;26.60;;;1.80;99.90;;;;;;5043322;28;20181;-76
2021/01/04 04:24:07;;;;;;;48.17;28.13;;;1.80;99.90;;;;;;5039974;28;20408;-76
2021/01/04 04:26:33;;;;;;;48.90;26.57;;;1.80;99.90;;;;;;5042421;28;20240;-76
2021/01/04 04:28:58;;;;;;;44.67;24.70;;;1.80;99.90;;;;;;5041154;28;20429;-76
2021/01/04 04:31:24;;;;;;;50.20;26.53;;;1.80;99.90;;;;;;5041497;28;20190;-76
2021/01/04 04:33:50;;;;;;;51.80;27.10;;;1.80;99.90;;;;;;5024153;28;20199;-76
2021/01/04 04:36:25;;;;;;;50.50;25.20;;;1.80;99.90;;;;;;5022405;28;20174;-76
2021/01/04 04:38:52;;;;;;;44.27;25.97;;;1.90;99.90;;;;;;5041690;28;20458;-76
2021/01/04 04:41:31;;;;;;;50.30;26.87;;;1.90;99.90;;;;;;5039558;28;20417;-77
2021/01/04 04:44:17;;;;;;;44.37;25.13;;;1.90;99.90;;;;;;5041599;28;20418;-77
2021/01/04 04:47:04;;;;;;;47.37;25.93;;;1.80;99.90;;;;;;5018021;28;20824;-77
2021/01/04 04:50:03;;;;;;;49.67;25.87;;;1.80;99.90;;;;;;5040657;28;20434;-76
2021/01/04 04:53:04;;;;;;;46.33;25.23;;;1.80;99.90;;;;;;5040439;28;20406;-77
2021/01/04 04:55:58;;;;;;;50.40;27.40;;;1.80;99.90;;;;;;5040520;28;20444;-76
2021/01/04 04:58:38;;;;;;;52.77;27.60;;;1.80;99.90;;;;;;5002042;28;20456;-76
2021/01/04 05:01:28;;;;;;;49.10;27.13;;;1.80;99.90;;;;;;5039794;28;20535;-76
2021/01/04 05:04:23;;;;;;;45.10;26.90;;;1.80;99.90;;;;;;5039282;28;20438;-76
2021/01/04 05:07:08;;;;;;;53.90;26.77;;;1.80;99.90;;;;;;5019524;28;20917;-76
2021/01/04 05:09:53;;;;;;;49.83;28.00;;;1.70;99.90;;;;;;5021956;28;20429;-76
2021/01/04 05:12:26;;;;;;;43.33;26.30;;;1.70;99.90;;;;;;5018858;28;20505;-76
2021/01/04 05:15:01;;;;;;;53.83;26.83;;;1.70;99.90;;;;;;5040527;28;20493;-76
2021/01/04 05:18:06;;;;;;;50.13;27.53;;;1.80;99.90;;;;;;5040319;28;20412;-76
2021/01/04 05:20:53;;;;;;;46.67;27.67;;;1.80;99.90;;;;;;5040820;28;20537;-75
2021/01/04 05:24:02;;;;;;;46.13;27.27;;;1.70;99.90;;;;;;5037453;28;20440;-76
2021/01/04 05:26:52;;;;;;;49.53;28.13;;;1.80;99.90;;;;;;5017890;28;20773;-76
2021/01/04 05:29:44;;;;;;;41.63;25.30;;;1.70;99.90;;;;;;5037397;28;20840;-77
2021/01/04 05:32:34;;;;;;;48.30;27.90;;;1.80;99.90;;;;;;5035541;28;20508;-76
2021/01/04 05:35:03;;;;;;;47.90;26.60;;;1.80;99.90;;;;;;5040483;28;20941;-76
2021/01/04 05:37:56;;;;;;;42.00;25.60;;;1.80;99.90;;;;;;5040141;28;20399;-76
2021/01/04 05:40:37;;;;;;;44.50;24.93;;;1.80;99.90;;;;;;5038143;28;20463;-76
2021/01/04 05:43:02;;;;;;;48.33;27.27;;;1.80;99.90;;;;;;5039516;28;20437;-77
2021/01/04 05:45:43;;;;;;;48.60;27.70;;;1.80;99.90;;;;;;5040786;28;20510;-76
2021/01/04 05:48:33;;;;;;;66.30;36.90;;;1.80;99.90;;;;;;5035096;28;20181;-76
2021/01/04 05:51:07;;;;;;;50.60;28.00;;;1.80;99.90;;;;;;5040104;28;20427;-76
2021/01/04 05:53:33;;;;;;;51.90;27.23;;;1.70;99.90;;;;;;5039044;28;20545;-74
2021/01/04 05:56:00;;;;;;;46.07;26.10;;;1.70;99.90;;;;;;5023149;28;20516;-76
2021/01/04 05:58:31;;;;;;;49.40;28.13;;;1.70;99.90;;;;;;5025030;28;20176;-76
2021/01/04 06:01:13;;;;;;;47.37;27.47;;;1.70;99.90;;;;;;5044425;28;20518;-76
2021/01/04 06:03:39;;;;;;;45.73;27.00;;;1.70;99.90;;;;;;5038674;28;20921;-76
2021/01/04 06:06:26;;;;;;;43.03;27.13;;;1.70;99.90;;;;;;5045826;28;20425;-75
2021/01/04 06:08:59;;;;;;;47.73;27.17;;;1.70;99.90;;;;;;5041951;28;20548;-76
2021/01/04 06:11:25;;;;;;;50.47;27.50;;;1.60;99.90;;;;;;5044025;28;20427;-77
2021/01/04 06:13:56;;;;;;;53.50;26.27;;;1.60;99.90;;;;;;5025550;28;20493;-76
2021/01/04 06:16:26;;;;;;;50.57;28.00;;;1.60;99.90;;;;;;5044199;28;20180;-76
2021/01/04 06:18:55;;;;;;;47.63;24.13;;;1.60;99.90;;;;;;5025564;28;20435;-77
2021/01/04 06:21:45;;;;;;;51.93;27.77;;;1.60;99.90;;;;;;5026797;28;20394;-76
2021/01/04 06:24:20;;;;;;;55.57;25.80;;;1.60;99.90;;;;;;5038506;28;20501;-76
2021/01/04 06:26:51;;;;;;;47.80;26.10;;;1.60;99.90;;;;;;5039298;28;20439;-78
2021/01/04 06:29:30;;;;;;;47.50;25.43;;;1.60;99.90;;;;;;5045017;28;20951;-76
2021/01/04 06:31:57;;;;;;;48.27;25.63;;;1.60;99.90;;;;;;5043772;28;20432;-76
2021/01/04 06:34:32;;;;;;;51.63;27.80;;;1.70;99.90;;;;;;5025983;28;20510;-76
2021/01/04 06:37:19;;;;;;;50.43;26.17;;;1.70;99.90;;;;;;5026165;28;20781;-76
2021/01/04 06:39:59;;;;;;;48.53;26.20;;;1.70;99.90;;;;;;5038913;28;20471;-77
2021/01/04 06:42:25;;;;;;;48.90;26.53;;;1.70;99.90;;;;;;5043552;28;20795;-76
2021/01/04 06:44:56;;;;;;;45.67;26.13;;;1.60;99.90;;;;;;5042842;28;20461;-76
2021/01/04 06:47:53;;;;;;;47.83;25.83;;;1.60;99.90;;;;;;5043873;28;20183;-76
2021/01/04 06:50:31;;;;;;;53.23;28.63;;;1.60;99.90;;;;;;5039906;28;20419;-76
2021/01/04 06:53:47;;;;;;;54.80;29.80;;;1.60;99.90;;;;;;5025146;28;20837;-76
2021/01/04 06:56:47;;;;;;;54.27;26.47;;;1.60;99.90;;;;;;4999053;28;20505;-76
2021/01/04 06:59:42;;;;;;;54.87;28.43;;;1.70;99.90;;;;;;5038277;28;20802;-76
2021/01/04 07:02:33;;;;;;;49.47;25.90;;;1.70;99.90;;;;;;5037675;28;20885;-76
2021/01/04 07:05:17;;;;;;;59.53;27.17;;;1.70;99.90;;;;;;5042608;28;20752;-76
2021/01/04 07:08:11;;;;;;;51.67;28.60;;;1.70;99.90;;;;;;5019802;28;20448;-77
2021/01/04 07:10:48;;;;;;;47.13;24.97;;;1.70;99.90;;;;;;5023431;28;20814;-72
2021/01/04 07:13:32;;;;;;;46.33;25.73;;;1.80;99.90;;;;;;5038301;28;20411;-72
2021/01/04 07:16:09;;;;;;;41.20;22.07;;;1.80;99.90;;;;;;5042176;28;20424;-71
2021/01/04 07:19:01;;;;;;;52.47;25.43;;;1.80;99.90;;;;;;5044016;28;20849;-74
2021/01/04 07:21:33;;;;;;;52.13;25.80;;;1.80;99.90;;;;;;5041200;28;20399;-72
2021/01/04 07:24:30;;;;;;;48.03;25.10;;;1.80;99.90;;;;;;5041900;28;20429;-72
2021/01/04 07:27:03;;;;;;;52.07;27.37;;;1.80;99.90;;;;;;5040934;28;20455;-72
2021/01/04 07:29:45;;;;;;;54.83;27.53;;;1.80;99.90;;;;;;5042270;28;20472;-73
2021/01/04 07:32:36;;;;;;;47.20;25.63;;;1.80;99.90;;;;;;5037076;28;20412;-72
2021/01/04 07:35:06;;;;;;;52.00;25.60;;;1.80;99.90;;;;;;5042535;28;20415;-72
2021/01/04 07:37:37;;;;;;;40.77;23.93;;;1.80;99.90;;;;;;5041093;28;21024;-72
2021/01/04 07:40:35;;;;;;;51.40;25.77;;;1.80;99.90;;;;;;5043456;28;20469;-72
2021/01/04 07:43:28;;;;;;;47.50;24.53;;;1.80;99.90;;;;;;5042165;28;20966;-73
2021/01/04 07:45:59;;;;;;;54.33;25.30;;;1.70;99.90;;;;;;5040175;28;20421;-73
2021/01/04 07:48:44;;;;;;;49.10;25.37;;;1.80;99.90;;;;;;5024033;28;20951;-74
2021/01/04 07:51:22;;;;;;;47.50;24.83;;;1.80;99.90;;;;;;5036507;28;20403;-73
2021/01/04 07:54:04;;;;;;;47.03;24.03;;;1.80;99.90;;;;;;5037944;28;20935;-72
2021/01/04 07:56:59;;;;;;;44.70;24.80;;;1.90;99.90;;;;;;5041187;28;20738;-72
2021/01/04 07:59:39;;;;;;;45.37;24.13;;;1.90;99.90;;;;;;5040075;28;20510;-73
2021/01/04 08:02:28;;;;;;;46.07;24.83;;;1.90;99.90;;;;;;5040498;28;20818;-73
2021/01/04 08:05:29;;;;;;;48.87;25.33;;;1.80;99.90;;;;;;5039798;28;20420;-73
2021/01/04 08:08:10;;;;;;;43.10;24.77;;;1.90;99.90;;;;;;5021987;28;20427;-72
2021/01/04 08:10:51;;;;;;;47.10;25.93;;;1.90;99.90;;;;;;5040138;28;20484;-73
2021/01/04 08:13:57;;;;;;;48.70;25.03;;;1.90;99.90;;;;;;5037655;28;20889;-72
2021/01/04 08:16:31;;;;;;;49.27;25.33;;;1.80;99.90;;;;;;5039504;28;20420;-73
2021/01/04 08:19:01;;;;;;;39.17;23.70;;;1.90;99.90;;;;;;5041396;28;20768;-73
2021/01/04 08:22:08;;;;;;;47.23;25.40;;;1.90;99.90;;;;;;5040660;28;20756;-73
2021/01/04 08:24:44;;;;;;;46.00;25.70;;;1.90;99.90;;;;;;5007153;28;20483;-72
2021/01/04 08:27:33;;;;;;;48.53;25.10;;;1.90;99.90;;;;;;5032772;28;20912;-72
2021/01/04 08:30:16;;;;;;;43.67;23.77;;;1.90;99.90;;;;;;5037292;28;20458;-73
2021/01/04 08:33:11;;;;;;;43.63;22.73;;;1.90;99.90;;;;;;5040121;28;20519;-72
2021/01/04 08:35:42;;;;;;;48.73;23.67;;;1.90;99.90;;;;;;5043453;28;20764;-74
2021/01/04 08:38:29;;;;;;;49.13;24.33;;;1.90;99.90;;;;;;5035480;28;20428;-73
2021/01/04 08:41:02;;;;;;;46.53;22.93;;;2.00;99.90;;;;;;5039321;28;20442;-74
2021/01/04 08:43:43;;;;;;;49.20;26.83;;;2.00;99.90;;;;;;5040601;28;20453;-74
2021/01/04 08:46:19;;;;;;;52.00;25.00;;;2.00;99.90;;;;;;5038906;28;20395;-74
2021/01/04 08:48:45;;;;;;;43.93;23.57;;;2.10;99.90;;;;;;5035644;28;20457;-74
2021/01/04 08:51:33;;;;;;;47.67;24.10;;;2.10;99.90;;;;;;5038776;28;20860;-73
2021/01/04 08:54:03;;;;;;;46.57;27.00;;;2.10;99.90;;;;;;5039979;28;20217;-74
2021/01/04 08:56:47;;;;;;;40.73;23.63;;;2.10;99.90;;;;;;5040559;28;20456;-73
2021/01/04 08:59:16;;;;;;;48.13;23.20;;;2.20;99.90;;;;;;5035817;28;20460;-73
2021/01/04 09:01:57;;;;;;;48.23;25.93;;;2.20;99.90;;;;;;5035701;28;21005;-74
2021/01/04 09:04:35;;;;;;;46.33;25.53;;;2.20;99.90;;;;;;5040712;28;20509;-73
2021/01/04 09:07:13;;;;;;;42.73;24.57;;;2.10;99.90;;;;;;5040832;28;20523;-73
2021/01/04 09:10:13;;;;;;;44.73;23.67;;;2.20;99.90;;;;;;5035009;28;21003;-72
2021/01/04 09:12:42;;;;;;;43.90;25.20;;;2.20;99.90;;;;;;5020897;28;20503;-73
2021/01/04 09:15:12;;;;;;;45.90;23.43;;;2.10;99.90;;;;;;5039069;28;20444;-73
2021/01/04 09:18:01;;;;;;;45.23;24.07;;;2.20;99.90;;;;;;5035001;28;20433;-73
2021/01/04 09:21:04;;;;;;;49.63;25.10;;;2.20;99.90;;;;;;5039269;28;20476;-73
2021/01/04 09:23:36;;;;;;;45.30;24.43;;;2.30;99.90;;;;;;5022135;28;20495;-74
2021/01/04 09:26:02;;;;;;;46.03;24.30;;;2.30;99.90;;;;;;5039941;28;20933;-73
2021/01/04 09:28:37;;;;;;;46.93;23.07;;;2.40;99.90;;;;;;5040739;28;20439;-73
2021/01/04 09:31:03;;;;;;;43.80;24.17;;;2.40;99.90;;;;;;5039801;28;20671;-73
2021/01/04 09:33:29;;;;;;;42.27;24.00;;;2.40;99.90;;;;;;5045081;28;20426;-73
2021/01/04 09:36:03;;;;;;;44.90;23.10;;;2.50;99.90;;;;;;5046449;28;20599;-73
2021/01/04 09:38:29;;;;;;;46.73;24.63;;;2.40;99.90;;;;;;5027008;28;20552;-73
2021/01/04 09:41:03;;;;;;;41.30;23.63;;;2.50;99.90;;;;;;5044503;28;20521;-73
2021/01/04 09:43:32;;;;;;;38.57;22.27;;;2.50;99.90;;;;;;5044675;28;21000;-74
2021/01/04 09:46:15;;;;;;;40.77;22.20;;;2.40;99.90;;;;;;5044207;28;20484;-74
2021/01/04 09:49:00;;;;;;;47.00;23.20;;;2.50;99.90;;;;;;5039021;28;20509;-74
2021/01/04 09:51:38;;;;;;;39.83;24.40;;;2.40;99.90;;;;;;5042942;28;20427;-73
2021/01/04 09:54:06;;;;;;;44.27;24.50;;;2.50;99.90;;;;;;5043131;28;20778;-73
2021/01/04 09:56:35;;;;;;;41.30;22.60;;;2.40;99.90;;;;;;5027220;28;20414;-73
2021/01/04 09:59:03;;;;;;;44.23;23.10;;;2.40;99.90;;;;;;5043360;28;20892;-73
2021/01/04 10:01:38;;;;;;;44.07;24.93;;;2.50;99.90;;;;;;5044608;28;20420;-73
2021/01/04 10:04:04;;;;;;;39.83;23.33;;;2.50;99.90;;;;;;5025260;28;20823;-73
2021/01/04 10:06:34;;;;;;;39.57;21.60;;;2.50;99.90;;;;;;5044312;28;20429;-73
2021/01/04 10:08:59;;;;;;;42.73;23.33;;;2.50;99.90;;;;;;5025707;28;20173;-73
2021/01/04 10:11:25;;;;;;;40.60;22.60;;;2.50;99.90;;;;;;5043672;28;20408;-73
2021/01/04 10:13:51;;;;;;;37.80;22.47;;;2.60;99.90;;;;;;5044723;28;20192;-74
2021/01/04 10:16:23;;;;;;;43.53;23.03;;;2.70;99.90;;;;;;5042450;28;20220;-73
2021/01/04 10:18:55;;;;;;;38.43;22.40;;;2.70;99.90;;;;;;5044754;28;20197;-74
2021/01/04 10:21:51;;;;;;;39.70;23.50;;;2.70;99.90;;;;;;5043035;28;20396;-73
2021/01/04 10:24:24;;;;;;;38.70;22.70;;;2.70;99.90;;;;;;5039721;28;20429;-73
2021/01/04 10:26:51;;;;;;;41.70;21.07;;;2.80;99.90;;;;;;5044260;28;20430;-75
2021/01/04 10:29:26;;;;;;;41.77;21.83;;;2.70;99.90;;;;;;5024669;28;20934;-73
2021/01/04 10:32:12;;;;;;;41.67;21.57;;;2.70;99.90;;;;;;5044445;28;20430;-73
2021/01/04 10:34:43;;;;;;;40.70;22.67;;;2.70;99.90;;;;;;5045144;28;20442;-75
2021/01/04 10:37:35;;;;;;;38.27;21.80;;;2.80;99.90;;;;;;5037863;28;20416;-73
2021/01/04 10:40:05;;;;;;;42.80;21.93;;;2.70;99.90;;;;;;5040998;28;20553;-73
2021/01/04 10:42:31;;;;;;;38.00;21.20;;;2.80;99.90;;;;;;5043935;28;20534;-73
2021/01/04 10:45:33;;;;;;;39.27;21.80;;;2.80;99.90;;;;;;5042548;28;20398;-74
2021/01/04 10:48:07;;;;;;;45.73;22.30;;;2.80;99.90;;;;;;5032365;28;20201;-72
2021/01/04 10:50:38;;;;;;;50.07;25.23;;;2.80;99.90;;;;;;5042057;28;20794;-73
2021/01/04 10:53:08;;;;;;;46.37;25.20;;;2.90;99.90;;;;;;5044332;28;20455;-73
2021/01/04 10:55:48;;;;;;;39.70;22.50;;;2.90;99.90;;;;;;5041808;28;20879;-73
2021/01/04 10:58:27;;;;;;;40.27;22.93;;;2.90;99.90;;;;;;5030022;28;20793;-73
2021/01/04 11:01:04;;;;;;;42.70;22.10;;;2.80;99.90;;;;;;5025595;28;20475;-73
2021/01/04 11:03:30;;;;;;;38.97;20.77;;;2.90;99.90;;;;;;5043417;28;20981;-73
2021/01/04 11:05:56;;;;;;;40.33;22.00;;;2.90;99.90;;;;;;5042784;28;20536;-73
2021/01/04 11:08:24;;;;;;;36.10;20.47;;;2.90;99.90;;;;;;5042356;28;20184;-73
2021/01/04 11:11:28;;;;;;;40.07;21.93;;;2.80;99.90;;;;;;5043662;28;20492;-73
2021/01/04 11:14:05;;;;;;;47.53;24.63;;;2.80;99.90;;;;;;5037474;28;20543;-72
2021/01/04 11:16:44;;;;;;;34.17;22.03;;;2.80;99.90;;;;;;5041327;28;20540;-73
2021/01/04 11:19:10;;;;;;;45.03;22.00;;;2.90;99.90;;;;;;5019693;28;20463;-73
2021/01/04 11:21:45;;;;;;;41.57;23.43;;;2.90;99.90;;;;;;5041470;28;20432;-72
2021/01/04 11:24:12;;;;;;;42.03;22.73;;;2.90;99.90;;;;;;5019374;28;20444;-73
2021/01/04 11:26:47;;;;;;;42.97;22.67;;;2.90;99.90;;;;;;5043891;28;20419;-72
2021/01/04 11:29:14;;;;;;;35.20;21.33;;;2.90;99.90;;;;;;5037420;28;20427;-72
2021/01/04 11:31:39;;;;;;;36.70;21.70;;;3.00;99.90;;;;;;5037091;28;20401;-75
2021/01/04 11:34:06;;;;;;;38.07;22.90;;;3.00;99.90;;;;;;5043577;28;20859;-73
2021/01/04 11:36:31;;;;;;;39.33;21.90;;;3.00;99.90;;;;;;5041480;28;20197;-73
2021/01/04 11:38:57;;;;;;;37.83;21.23;;;2.90;99.90;;;;;;5042440;28;20978;-73
2021/01/04 11:41:23;;;;;;;36.47;22.70;;;2.90;99.90;;;;;;5042808;28;20434;-73
2021/01/04 11:43:50;;;;;;;35.10;21.20;;;2.90;99.90;;;;;;5041268;28;20414;-73
2021/01/04 11:46:17;;;;;;;38.87;22.13;;;2.90;99.90;;;;;;5043590;28;20232;-73
2021/01/04 11:48:42;;;;;;;35.30;20.60;;;2.90;99.90;;;;;;5040036;28;20933;-75
2021/01/04 11:51:08;;;;;;;37.23;20.23;;;2.90;99.90;;;;;;5026063;28;20634;-73
2021/01/04 11:53:34;;;;;;;34.13;19.87;;;2.90;99.90;;;;;;5040550;28;20266;-73
2021/01/04 11:56:01;;;;;;;37.80;22.10;;;3.00;99.90;;;;;;5042789;28;20519;-76
2021/01/04 11:58:27;;;;;;;36.47;19.90;;;3.00;99.90;;;;;;5041779;28;20284;-73
2021/01/04 12:00:53;;;;;;;35.53;20.23;;;2.90;99.90;;;;;;5040278;28;20449;-73
2021/01/04 12:03:19;;;;;;;37.27;19.53;;;2.90;99.90;;;;;;5041096;28;20231;-72
2021/01/04 12:05:44;;;;;;;32.00;19.00;;;2.90;99.90;;;;;;5043371;28;20874;-74
2021/01/04 12:08:10;;;;;;;35.33;19.57;;;2.90;99.90;;;;;;5039942;28;20204;-74
2021/01/04 12:10:35;;;;;;;32.90;19.10;;;2.90;99.90;;;;;;5043053;28;20183;-73
2021/01/04 12:13:01;;;;;;;30.73;18.97;;;2.90;99.90;;;;;;5040972;28;20213;-73
2021/01/04 12:15:27;;;;;;;29.40;16.93;;;2.90;99.90;;;;;;5040011;28;20655;-73
2021/01/04 12:17:52;;;;;;;29.10;16.90;;;2.90;99.90;;;;;;5040944;28;20190;-73
2021/01/04 12:20:18;;;;;;;25.97;16.30;;;2.90;99.90;;;;;;5042702;28;20292;-73
2021/01/04 12:22:44;;;;;;;29.10;17.87;;;2.90;99.90;;;;;;5039988;28;20280;-74
2021/01/04 12:25:10;;;;;;;27.80;16.67;;;2.90;99.90;;;;;;5043348;28;20861;-74
2021/01/04 12:27:36;;;;;;;29.63;17.20;;;2.80;99.90;;;;;;5039971;28;20342;-73
2021/01/04 12:30:02;;;;;;;25.90;16.27;;;2.90;99.90;;;;;;5042240;28;20498;-74
2021/01/04 12:32:30;;;;;;;32.63;17.17;;;2.80;99.90;;;;;;5041309;28;20191;-74
2021/01/04 12:34:56;;;;;;;29.20;17.10;;;2.80;99.90;;;;;;5041300;28;20458;-74
2021/01/04 12:37:21;;;;;;;26.80;16.20;;;2.80;99.90;;;;;;5040247;28;20517;-73
2021/01/04 12:39:47;;;;;;;30.97;16.53;;;2.90;99.90;;;;;;5038794;28;20717;-73
2021/01/04 12:42:12;;;;;;;27.60;16.90;;;2.90;99.90;;;;;;5039629;28;20182;-73
2021/01/04 12:44:38;;;;;;;29.10;17.20;;;2.90;99.90;;;;;;5042565;28;20579;-73
2021/01/04 12:47:04;;;;;;;28.07;17.37;;;2.90;99.90;;;;;;5040144;28;20196;-73
2021/01/04 12:49:29;;;;;;;26.10;16.30;;;2.90;99.90;;;;;;5041702;28;20194;-73
2021/01/04 12:51:57;;;;;;;24.57;15.67;;;2.90;99.90;;;;;;5041347;28;20222;-73
2021/01/04 12:54:26;;;;;;;26.07;15.67;;;2.90;99.90;;;;;;5040451;28;20242;-74
2021/01/04 12:56:52;;;;;;;33.90;15.50;;;2.90;99.90;;;;;;5038501;28;20436;-73
2021/01/04 12:59:21;;;;;;;26.80;16.23;;;2.90;99.90;;;;;;5042294;28;20470;-73
2021/01/04 13:01:51;;;;;;;27.97;16.00;;;2.90;99.90;;;;;;5039614;28;20432;-73
2021/01/04 13:04:20;;;;;;;25.90;15.47;;;2.90;99.90;;;;;;5024346;28;20444;-74
2021/01/04 13:06:47;;;;;;;27.27;14.60;;;2.80;99.90;;;;;;5021169;28;20917;-73
2021/01/04 13:09:13;;;;;;;27.50;15.20;;;2.70;99.90;;;;;;5042763;28;20452;-73
2021/01/04 13:11:38;;;;;;;19.70;12.23;;;2.70;99.90;;;;;;5035102;28;20464;-73
2021/01/04 13:14:04;;;;;;;23.37;13.37;;;2.80;99.90;;;;;;5042236;28;20436;-74
2021/01/04 13:16:38;;;;;;;19.50;13.17;;;2.70;99.90;;;;;;5023395;28;20229;-74
2021/01/04 13:19:05;;;;;;;26.30;12.83;;;2.60;99.90;;;;;;5039927;28;20667;-73
2021/01/04 13:21:31;;;;;;;18.90;12.40;;;2.70;99.90;;;;;;5041506;28;20432;-74
2021/01/04 13:23:56;;;;;;;24.13;14.90;;;2.70;99.90;;;;;;5040595;28;20444;-75